Atlanta, MI

8:53 AM EDT on May 06, 2015 (GMT -0400)
RAWS | | Change Station
CLOSE
Current Station
Personal Weather Station
Location: Atlanta, MI
Elevation: 895 ft
Nearby Weather Stations

Elev 895 ft 45.15 °N, 84.19 °W | Updated 45 minutes ago

Partly Cloudy
Partly Cloudy
46 °F
Feels Like 46 °F
N
2
Wind Variable Wind from South
Gusts 4.0 mph

Today
High -- | Low -- °F
--% Chance of Precip.
Yesterday
High -- | Low -- °F
Precip. -- in
6:19 AM 8:48 PM
Waning Gibbous, 94% visible
Pressure 30.27 in
Visibility 10.0 miles
Clouds Clear
Windchill 46 °F
Dew Point 43 °F
Humidity 88%
Rainfall in
Snow Depth Not available.
UV 1 out of 12
Pollen 10.60 out of 12
Air Quality Not available.
Flu Activity Regional
METAR KGLR 061153Z AUTO 15004KT 10SM CLR 08/06 A3026 RMK AO2 SLP250 T00830061 10083 20028 53001

More Conditions Fewer Conditions

Pressure 30.27 in
Visibility 10.0 miles
Clouds Clear
Windchill 46 °F
Dew Point 43 °F
Humidity 88%
Rainfall in
Snow Depth Not available.
UV 1 out of 12
Pollen 10.60 out of 12
Air Quality Not available.
Flu Activity Regional
METAR KGLR 061153Z AUTO 15004KT 10SM CLR 08/06 A3026 RMK AO2 SLP250 T00830061 10083 20028 53001

More Conditions Fewer Conditions

Nowcast | as of 8:00 am EDT on May 6, 2015

At 9 am...partly cloudy. Temperature 52. Light winds. At 11 am...partly cloudy. Temperature 61. Southeast winds 5 mph. At 1 PM...partly cloudy. Temperature 69. Southeast winds 6 mph. At 3 PM...partly cloudy. Temperature 72. Southeast winds 6 mph.

×

10-Day Weather Forecast

Almanac

Astronomy

May. 06, 2015 Rise Set
Actual Time
Civil Twilight
Nautical Twilight
Astronomical Twilight
Moon
Length of Visible Light
Length of Day
Tomorrow will be .
, % of the Moon is Illuminated

Today's Extremes

State Highs State Lows

Community

WunderPhotos

Upload Photos

1,818,884 photos uploaded!

WunderBlogs® & News

Nearby

Air Quality

  Air Quality AQ Index Pollutant
Not available.

Snow Depth

Station Depth Elevation

Earthquake Activity

City Distance Mag. Time & Date
Minimum magnitude displayed is 2.5.

Coastal Water Temperatures

Place Temperature

Stations

Nearby Weather Stations

Station Location Temp. Windchill Dew Point Humidity Wind Precip. Elev Updated Type